Tropical Cyclones
[Index]
Main Index Home Page Stock Weather Photos Extreme Storms Discussion Storm News and Storm Chasing Reports Tropical Cyclones / Hurricanes / Typhoons Weather Data and Links Wild Fires / Bushfires Weather Observation Techniques Weather Picture Catalogue Tornado Pictures and Reports Stock Video Footage and DVDs for sale
Season 2012-2013 Tropical Cyclone RUSTY Track Map
Season 2012-2013 Summaries: [BoM-AU] [JTWC-AU] [JTWC-SIO] [JTWC-SPAC] [JTWC-SH]
<<- Previous TC | JTWC 2012-2013 Season | Next TC ->>

click for intensity scale information  Lat/long Grid: Show Hide

 Date Labels: Show Hide

Joint Typhoon Warning Centre Cyclone Data

Name: RUSTY

23 Feb 2013 00:00 UTC to 28 Feb 2013 06:00 UTC

    date/time    lat    long     hPa   cat  kts
2013-02-23 00   15.1   118.4    1004         25          
2013-02-23 06   15.5   118.2    1004         25          
2013-02-23 12   15.8   118.1    1004         25          
2013-02-23 18   16.3   118.0     995         30          
2013-02-24 00   16.7   118.1    1000         30          
2013-02-24 06   17.0   118.1     996         35          
2013-02-24 12   17.4   118.1     989    1    45          
2013-02-24 18   17.5   118.4     985    1    50          
2013-02-24 18   17.5   118.4     985    1    50          
2013-02-25 00   17.8   118.7     978    2    60          
2013-02-25 00   17.8   118.7     978    2    60          
2013-02-25 06   18.1   119.0     974    2    65          
2013-02-25 06   18.1   119.0     974    2    65          
2013-02-25 12   18.4   119.3     970    2    70          
2013-02-25 12   18.4   119.3     970    2    70          
2013-02-25 12   18.4   119.3     970    2    70          
2013-02-25 18   18.8   119.3     967    3    75          
2013-02-25 18   18.8   119.3     967    3    75          
2013-02-25 18   18.8   119.3     967    3    75          
2013-02-26 00   19.0   119.2     967    3    75          
2013-02-26 00   19.0   119.2     967    3    75          
2013-02-26 00   19.0   119.2     967    3    75          
2013-02-26 06   19.2   119.1     967    3    75          
2013-02-26 06   19.2   119.1     967    3    75          
2013-02-26 06   19.2   119.1     967    3    75          
2013-02-26 12   19.3   119.1     959    3    85          
2013-02-26 12   19.3   119.1     959    3    85          
2013-02-26 12   19.3   119.1     959    3    85          
2013-02-26 18   19.3   119.2     948    4   100          
2013-02-26 18   19.3   119.2     948    4   100          
2013-02-26 18   19.3   119.2     948    4   100          
2013-02-27 00   19.4   119.3     952    3    95          
2013-02-27 00   19.4   119.3     952    3    95          
2013-02-27 00   19.4   119.3     952    3    95          
2013-02-27 06   19.8   119.5     956    3    90          
2013-02-27 06   19.8   119.5     956    3    90          
2013-02-27 06   19.8   119.5     956    3    90          
2013-02-27 12   20.2   119.8     967    3    75          
2013-02-27 12   20.2   119.8     967    3    75          
2013-02-27 12   20.2   119.8     967    3    75          
2013-02-27 18   20.6   120.2     974    2    65          
2013-02-27 18   20.6   120.2     974    2    65          
2013-02-28 00   21.3   120.4     989    1    45          
2013-02-28 06   22.1   120.6     996         35          
Winds are 1-min average.

Tropical cyclone tracks developed by Michael Bath using data from the Joint Typhoon Warning Centre Best Tracks and Google Maps.


[Australian Severe Weather index] [Copyright Notice] [Email Contacts] [Search This Site] [Privacy Policy]
Document: tropical_cyclone_rusty.htm Updated: 28 June 2017